sensor_id;sensor_type;location;lat;lon;timestamp;pressure;altitude;pressure_sealevel;temperature;humidity
62152;BME280;48139;47.474;19.034;2022-12-08T04:58:13;100356.00;;;1.85;100.00
62152;BME280;48139;47.474;19.034;2022-12-08T05:01:17;100356.00;;;1.85;100.00
62152;BME280;48139;47.474;19.034;2022-12-08T05:04:19;100359.88;;;1.46;100.00
62152;BME280;48139;47.474;19.034;2022-12-08T05:07:22;100369.28;;;1.53;100.00
62152;BME280;48139;47.474;19.034;2022-12-08T05:10:25;100371.78;;;1.60;100.00
62152;BME280;48139;47.474;19.034;2022-12-08T05:13:29;100363.91;;;1.71;100.00
62152;BME280;48139;47.474;19.034;2022-12-08T05:16:31;100367.41;;;1.69;100.00
62152;BME280;48139;47.474;19.034;2022-12-08T05:19:34;100362.25;;;1.64;100.00
62152;BME280;48139;47.474;19.034;2022-12-08T05:22:36;100365.78;;;1.57;100.00
62152;BME280;48139;47.474;19.034;2022-12-08T05:25:39;100361.47;;;1.59;100.00
62152;BME280;48139;47.474;19.034;2022-12-08T05:28:41;100368.41;;;1.55;100.00
62152;BME280;48139;47.474;19.034;2022-12-08T05:31:45;100360.47;;;1.69;100.00
62152;BME280;48139;47.474;19.034;2022-12-08T05:34:47;100359.59;;;1.73;100.00
62152;BME280;48139;47.474;19.034;2022-12-08T05:37:50;100350.88;;;1.82;100.00
62152;BME280;48139;47.474;19.034;2022-12-08T05:40:53;100349.13;;;1.82;100.00
62152;BME280;48139;47.474;19.034;2022-12-08T05:43:55;100343.00;;;1.92;100.00
62152;BME280;48139;47.474;19.034;2022-12-08T05:46:58;100336.91;;;1.99;100.00
62152;BME280;48139;47.474;19.034;2022-12-08T05:50:00;100329.94;;;2.06;100.00
62152;BME280;48139;47.474;19.034;2022-12-08T05:53:03;100341.06;;;2.11;100.00
62152;BME280;48139;47.474;19.034;2022-12-08T05:56:06;100344.53;;;2.07;100.00
62152;BME280;48139;47.474;19.034;2022-12-08T05:59:09;100350.62;;;2.00;100.00
62152;BME280;48139;47.474;19.034;2022-12-08T06:02:11;100351.41;;;2.07;100.00
62152;BME280;48139;47.474;19.034;2022-12-08T06:05:14;100346.25;;;2.08;100.00
62152;BME280;48139;47.474;19.034;2022-12-08T06:08:16;100340.69;;;2.37;100.00
62152;BME280;48139;47.474;19.034;2022-12-08T06:11:21;100347.62;;;2.33;100.00
62152;BME280;48139;47.474;19.034;2022-12-08T06:14:24;100353.75;;;2.26;100.00
62152;BME280;48139;47.474;19.034;2022-12-08T06:17:27;100354.44;;;2.39;100.00
62152;BME280;48139;47.474;19.034;2022-12-08T06:20:29;100358.81;;;2.35;100.00
62152;BME280;48139;47.474;19.034;2022-12-08T06:23:33;100359.59;;;2.42;100.00
62152;BME280;48139;47.474;19.034;2022-12-08T06:26:36;100358.66;;;2.44;100.00
62152;BME280;48139;47.474;19.034;2022-12-08T06:29:39;100360.97;;;2.64;100.00
62152;BME280;48139;47.474;19.034;2022-12-08T06:32:41;100355.19;;;2.49;100.00
62152;BME280;48139;47.474;19.034;2022-12-08T06:35:44;100363.81;;;2.46;100.00
62152;BME280;48139;47.474;19.034;2022-12-08T06:38:47;100369.25;;;2.28;100.00
62152;BME280;48139;47.474;19.034;2022-12-08T06:41:49;100377.06;;;2.22;100.00
62152;BME280;48139;47.474;19.034;2022-12-08T06:45:12;100370.19;;;2.21;100.00
62152;BME280;48139;47.474;19.034;2022-12-08T06:48:15;100368.41;;;2.26;100.00
62152;BME280;48139;47.474;19.034;2022-12-08T06:51:20;100370.97;;;2.26;100.00
62152;BME280;48139;47.474;19.034;2022-12-08T06:54:25;100377.78;;;2.33;100.00
62152;BME280;48139;47.474;19.034;2022-12-08T06:57:27;100382.69;;;2.54;100.00
62152;BME280;48139;47.474;19.034;2022-12-08T07:00:30;100378.19;;;2.67;100.00
62152;BME280;48139;47.474;19.034;2022-12-08T07:03:34;100377.31;;;2.66;100.00
62152;BME280;48139;47.474;19.034;2022-12-08T07:06:36;100379.91;;;2.66;100.00
62152;BME280;48139;47.474;19.034;2022-12-08T07:09:39;100377.16;;;2.77;100.00
62152;BME280;48139;47.474;19.034;2022-12-08T07:12:41;100382.22;;;2.83;100.00
62152;BME280;48139;47.474;19.034;2022-12-08T07:15:44;100369.75;;;3.09;100.00
62152;BME280;48139;47.474;19.034;2022-12-08T07:18:46;100370.59;;;3.11;100.00
62152;BME280;48139;47.474;19.034;2022-12-08T07:21:49;100369.63;;;3.17;100.00
62152;BME280;48139;47.474;19.034;2022-12-08T07:24:51;100370.44;;;3.19;100.00
62152;BME280;48139;47.474;19.034;2022-12-08T07:27:54;100370.41;;;3.22;100.00
62152;BME280;48139;47.474;19.034;2022-12-08T07:30:57;100366.09;;;3.21;100.00
62152;BME280;48139;47.474;19.034;2022-12-08T07:33:59;100360.25;;;3.10;100.00
62152;BME280;48139;47.474;19.034;2022-12-08T07:37:02;100359.97;;;3.25;100.00
62152;BME280;48139;47.474;19.034;2022-12-08T07:40:06;100365.09;;;3.30;100.00
62152;BME280;48139;47.474;19.034;2022-12-08T07:43:10;100359.97;;;3.27;100.00
62152;BME280;48139;47.474;19.034;2022-12-08T07:46:14;100372.87;;;3.28;100.00
62152;BME280;48139;47.474;19.034;2022-12-08T07:49:18;100357.53;;;3.65;99.66
62152;BME280;48139;47.474;19.034;2022-12-08T07:52:20;100365.13;;;3.74;99.02
62152;BME280;48139;47.474;19.034;2022-12-08T07:55:23;100355.69;;;3.72;99.09
62152;BME280;48139;47.474;19.034;2022-12-08T07:58:26;100356.94;;;3.95;97.46
62152;BME280;48139;47.474;19.034;2022-12-08T08:01:31;100358.25;;;4.15;97.34
62152;BME280;48139;47.474;19.034;2022-12-08T08:04:34;100359.59;;;4.32;94.59
62152;BME280;48139;47.474;19.034;2022-12-08T08:07:37;100363.06;;;4.33;95.51
62152;BME280;48139;47.474;19.034;2022-12-08T08:10:40;100356.88;;;4.38;94.75
62152;BME280;48139;47.474;19.034;2022-12-08T08:13:42;100361.78;;;4.51;95.27
62152;BME280;48139;47.474;19.034;2022-12-08T08:16:45;100351.78;;;4.74;93.68
62152;BME280;48139;47.474;19.034;2022-12-08T08:19:49;100351.81;;;4.71;91.93
62152;BME280;48139;47.474;19.034;2022-12-08T08:22:52;100355.47;;;4.62;92.42
62152;BME280;48139;47.474;19.034;2022-12-08T08:25:54;100343.91;;;4.75;93.19
62152;BME280;48139;47.474;19.034;2022-12-08T08:29:00;100353.25;;;4.84;93.53
62152;BME280;48139;47.474;19.034;2022-12-08T08:32:02;100340.53;;;5.09;90.58
62152;BME280;48139;47.474;19.034;2022-12-08T08:35:05;100338.09;;;5.01;91.73
62152;BME280;48139;47.474;19.034;2022-12-08T08:38:07;100339.53;;;5.13;91.89
62152;BME280;48139;47.474;19.034;2022-12-08T08:41:10;100350.88;;;5.10;91.23
62152;BME280;48139;47.474;19.034;2022-12-08T08:44:13;100353.66;;;5.03;93.64
62152;BME280;48139;47.474;19.034;2022-12-08T08:47:16;100344.56;;;5.19;92.23
62152;BME280;48139;47.474;19.034;2022-12-08T08:50:18;100344.12;;;5.37;90.47
62152;BME280;48139;47.474;19.034;2022-12-08T08:53:21;100341.59;;;5.34;91.66
62152;BME280;48139;47.474;19.034;2022-12-08T08:56:24;100341.28;;;5.46;90.08
62152;BME280;48139;47.474;19.034;2022-12-08T08:59:27;100344.41;;;5.59;84.51
62152;BME280;48139;47.474;19.034;2022-12-08T09:02:30;100336.81;;;5.51;84.76
62152;BME280;48139;47.474;19.034;2022-12-08T09:05:33;100324.69;;;5.50;83.00
62152;BME280;48139;47.474;19.034;2022-12-08T09:08:35;100335.91;;;5.52;83.55
62152;BME280;48139;47.474;19.034;2022-12-08T09:11:38;100335.63;;;5.63;83.80
62152;BME280;48139;47.474;19.034;2022-12-08T09:14:40;100339.13;;;5.62;81.06
62152;BME280;48139;47.474;19.034;2022-12-08T09:17:43;100342.28;;;5.73;79.84
62152;BME280;48139;47.474;19.034;2022-12-08T09:20:45;100321.03;;;5.59;78.64
62152;BME280;48139;47.474;19.034;2022-12-08T09:23:54;100311.13;;;5.41;79.40
62152;BME280;48139;47.474;19.034;2022-12-08T09:26:56;100321.97;;;5.24;80.62
62152;BME280;48139;47.474;19.034;2022-12-08T09:29:59;100321.16;;;5.22;81.98
62152;BME280;48139;47.474;19.034;2022-12-08T09:33:02;100319.19;;;4.96;81.08
62152;BME280;48139;47.474;19.034;2022-12-08T09:36:05;100326.50;;;5.16;82.72
62152;BME280;48139;47.474;19.034;2022-12-08T09:39:08;100323.88;;;5.17;83.00
62152;BME280;48139;47.474;19.034;2022-12-08T09:42:11;100315.78;;;5.28;82.86
62152;BME280;48139;47.474;19.034;2022-12-08T09:45:16;100315.13;;;5.20;84.78
62152;BME280;48139;47.474;19.034;2022-12-08T09:48:23;100302.66;;;5.34;83.03
62152;BME280;48139;47.474;19.034;2022-12-08T09:51:35;100283.81;;;5.57;79.75
62152;BME280;48139;47.474;19.034;2022-12-08T09:54:39;100277.84;;;5.55;80.96
62152;BME280;48139;47.474;19.034;2022-12-08T09:57:42;100278.38;;;5.66;79.83
62152;BME280;48139;47.474;19.034;2022-12-08T10:00:46;100287.06;;;5.65;79.19
62152;BME280;48139;47.474;19.034;2022-12-08T10:03:49;100284.78;;;5.54;80.08
62152;BME280;48139;47.474;19.034;2022-12-08T10:10:19;100283.91;;;5.85;80.43
62152;BME280;48139;47.474;19.034;2022-12-08T10:13:41;100284.84;;;5.82;79.53
62152;BME280;48139;47.474;19.034;2022-12-08T10:16:48;100294.25;;;5.86;79.77
62152;BME280;48139;47.474;19.034;2022-12-08T10:19:59;100284.13;;;5.77;78.90
62152;BME280;48139;47.474;19.034;2022-12-08T10:26:25;100286.50;;;5.85;78.60
62152;BME280;48139;47.474;19.034;2022-12-08T10:29:28;100284.97;;;5.78;76.93
62152;BME280;48139;47.474;19.034;2022-12-08T10:32:33;100276.94;;;5.87;78.98
62152;BME280;48139;47.474;19.034;2022-12-08T10:35:46;100276.22;;;6.11;77.28
62152;BME280;48139;47.474;19.034;2022-12-08T10:38:48;100261.59;;;6.07;73.50
62152;BME280;48139;47.474;19.034;2022-12-08T10:41:51;100253.06;;;6.03;74.44
62152;BME280;48139;47.474;19.034;2022-12-08T10:51:23;100241.50;;;5.53;71.13
62152;BME280;48139;47.474;19.034;2022-12-08T10:54:31;100230.78;;;5.35;73.42
62152;BME280;48139;47.474;19.034;2022-12-08T10:57:37;100219.91;;;5.20;72.83
62152;BME280;48139;47.474;19.034;2022-12-08T11:00:40;100215.84;;;5.12;74.02
62152;BME280;48139;47.474;19.034;2022-12-08T11:03:49;100213.66;;;5.27;74.36
62152;BME280;48139;47.474;19.034;2022-12-08T11:06:52;100208.66;;;5.51;75.31
62152;BME280;48139;47.474;19.034;2022-12-08T11:09:56;100208.53;;;5.55;74.03
62152;BME280;48139;47.474;19.034;2022-12-08T11:13:01;100201.62;;;5.54;73.85
62152;BME280;48139;47.474;19.034;2022-12-08T11:16:05;100189.69;;;5.49;75.67
62152;BME280;48139;47.474;19.034;2022-12-08T11:19:13;100194.06;;;5.47;76.09
62152;BME280;48139;47.474;19.034;2022-12-08T11:22:28;100178.78;;;5.36;76.22
62152;BME280;48139;47.474;19.034;2022-12-08T11:25:32;100178.00;;;5.33;75.62
62152;BME280;48139;47.474;19.034;2022-12-08T11:28:35;100178.56;;;5.44;nan
62152;BME280;48139;47.474;19.034;2022-12-08T11:31:41;100165.66;;;5.41;75.28
62152;BME280;48139;47.474;19.034;2022-12-08T11:34:49;100160.34;;;5.45;74.40
62152;BME280;48139;47.474;19.034;2022-12-08T11:38:03;100142.44;;;5.36;73.54
62152;BME280;48139;47.474;19.034;2022-12-08T11:41:26;100128.97;;;5.23;73.48
62152;BME280;48139;47.474;19.034;2022-12-08T11:44:38;100126.22;;;5.28;73.47
62152;BME280;48139;47.474;19.034;2022-12-08T11:47:48;100120.59;;;5.12;74.52
62152;BME280;48139;47.474;19.034;2022-12-08T11:51:08;100126.41;;;5.22;73.01
62152;BME280;48139;47.474;19.034;2022-12-08T11:57:27;100119.50;;;5.21;73.40
62152;BME280;48139;47.474;19.034;2022-12-08T12:00:30;100124.25;;;5.36;73.27
62152;BME280;48139;47.474;19.034;2022-12-08T12:03:40;100114.19;;;5.53;74.92
62152;BME280;48139;47.474;19.034;2022-12-08T12:17:33;100108.25;;;5.78;71.06
62152;BME280;48139;47.474;19.034;2022-12-08T12:27:01;100113.12;;;5.60;69.19
62152;BME280;48139;47.474;19.034;2022-12-08T12:30:19;100112.66;;;5.48;69.87
62152;BME280;48139;47.474;19.034;2022-12-08T12:33:22;100118.50;;;5.25;72.11
62152;BME280;48139;47.474;19.034;2022-12-08T12:36:25;100116.72;;;5.27;71.75
62152;BME280;48139;47.474;19.034;2022-12-08T12:39:30;100121.69;;;5.35;71.39
62152;BME280;48139;47.474;19.034;2022-12-08T12:42:43;100126.72;;;5.41;71.94
62152;BME280;48139;47.474;19.034;2022-12-08T12:45:46;100121.78;;;5.32;71.11
62152;BME280;48139;47.474;19.034;2022-12-08T12:48:50;100120.00;;;5.34;70.37
62152;BME280;48139;47.474;19.034;2022-12-08T12:51:53;100109.56;;;5.35;72.26
62152;BME280;48139;47.474;19.034;2022-12-08T12:58:12;100094.25;;;5.26;71.91
62152;BME280;48139;47.474;19.034;2022-12-08T13:04:53;100085.03;;;5.16;71.41
62152;BME280;48139;47.474;19.034;2022-12-08T13:08:18;100095.41;;;5.16;73.41
62152;BME280;48139;47.474;19.034;2022-12-08T13:11:23;100101.47;;;5.16;74.75
62152;BME280;48139;47.474;19.034;2022-12-08T13:14:32;100082.16;;;5.25;71.89
62152;BME280;48139;47.474;19.034;2022-12-08T13:17:36;100076.34;;;5.17;71.28
62152;BME280;48139;47.474;19.034;2022-12-08T13:20:46;100075.66;;;5.12;71.81
62152;BME280;48139;47.474;19.034;2022-12-08T13:30:44;100071.75;;;4.97;73.00
62152;BME280;48139;47.474;19.034;2022-12-08T13:33:47;100065.38;;;5.07;71.88
62152;BME280;48139;47.474;19.034;2022-12-08T13:40:17;100079.84;;;5.16;70.83
62152;BME280;48139;47.474;19.034;2022-12-08T13:43:34;100088.37;;;5.19;72.58
62152;BME280;48139;47.474;19.034;2022-12-08T13:46:57;100082.47;;;5.14;73.77
62152;BME280;48139;47.474;19.034;2022-12-08T13:50:51;100080.59;;;5.19;74.94
62152;BME280;48139;47.474;19.034;2022-12-08T13:54:25;100085.94;;;5.15;75.21
62152;BME280;48139;47.474;19.034;2022-12-08T13:57:52;100074.72;;;5.13;76.19
62152;BME280;48139;47.474;19.034;2022-12-08T14:01:18;100070.94;;;5.24;74.28
62152;BME280;48139;47.474;19.034;2022-12-08T14:04:23;100073.12;;;5.09;73.70
62152;BME280;48139;47.474;19.034;2022-12-08T14:07:48;100074.91;;;5.07;73.94
62152;BME280;48139;47.474;19.034;2022-12-08T14:10:58;100070.31;;;5.16;72.10
62152;BME280;48139;47.474;19.034;2022-12-08T14:14:06;100072.69;;;5.24;74.18
62152;BME280;48139;47.474;19.034;2022-12-08T14:17:12;100067.75;;;5.15;77.70
62152;BME280;48139;47.474;19.034;2022-12-08T14:20:29;100061.03;;;5.08;80.58
62152;BME280;48139;47.474;19.034;2022-12-08T14:23:35;100070.56;;;5.07;82.34
62152;BME280;48139;47.474;19.034;2022-12-08T14:26:38;100073.22;;;5.06;82.26
62152;BME280;48139;47.474;19.034;2022-12-08T14:29:45;100078.72;;;4.95;82.01
62152;BME280;48139;47.474;19.034;2022-12-08T14:32:53;100079.59;;;4.94;78.81
62152;BME280;48139;47.474;19.034;2022-12-08T14:35:57;100082.69;;;4.77;76.99
62152;BME280;48139;47.474;19.034;2022-12-08T14:39:00;100078.34;;;4.78;77.54
62152;BME280;48139;47.474;19.034;2022-12-08T14:42:04;100079.41;;;4.71;76.87
62152;BME280;48139;47.474;19.034;2022-12-08T14:45:10;100080.97;;;4.76;75.89
62152;BME280;48139;47.474;19.034;2022-12-08T14:51:34;100079.44;;;4.69;76.22
62152;BME280;48139;47.474;19.034;2022-12-08T14:54:38;100081.78;;;4.78;77.35
62152;BME280;48139;47.474;19.034;2022-12-08T14:57:47;100082.72;;;4.76;77.03
62152;BME280;48139;47.474;19.034;2022-12-08T15:00:51;100076.50;;;4.81;77.10
62152;BME280;48139;47.474;19.034;2022-12-08T15:04:08;100073.78;;;4.86;77.55
62152;BME280;48139;47.474;19.034;2022-12-08T15:07:18;100073.81;;;4.84;75.25
62152;BME280;48139;47.474;19.034;2022-12-08T15:10:27;100064.47;;;4.79;75.21
62152;BME280;48139;47.474;19.034;2022-12-08T15:13:31;100072.41;;;4.74;75.42
62152;BME280;48139;47.474;19.034;2022-12-08T15:19:36;100066.53;;;4.68;75.66
62152;BME280;48139;47.474;19.034;2022-12-08T15:22:38;100064.84;;;4.65;79.48
62152;BME280;48139;47.474;19.034;2022-12-08T15:25:41;100074.31;;;4.68;82.17
62152;BME280;48139;47.474;19.034;2022-12-08T15:28:43;100075.41;;;4.59;83.26
62152;BME280;48139;47.474;19.034;2022-12-08T15:31:48;100080.06;;;4.46;83.72
62152;BME280;48139;47.474;19.034;2022-12-08T15:34:50;100074.56;;;4.59;84.77
62152;BME280;48139;47.474;19.034;2022-12-08T15:37:53;100057.03;;;4.67;82.67
62152;BME280;48139;47.474;19.034;2022-12-08T15:40:56;100057.25;;;4.59;80.16
62152;BME280;48139;47.474;19.034;2022-12-08T15:44:01;100056.59;;;4.51;80.08
62152;BME280;48139;47.474;19.034;2022-12-08T15:47:04;100052.34;;;4.49;81.16
62152;BME280;48139;47.474;19.034;2022-12-08T15:50:15;100046.19;;;4.53;80.52
62152;BME280;48139;47.474;19.034;2022-12-08T15:53:17;100041.69;;;4.59;78.39
62152;BME280;48139;47.474;19.034;2022-12-08T15:56:20;100035.59;;;4.60;78.10
62152;BME280;48139;47.474;19.034;2022-12-08T15:59:30;100028.78;;;4.56;78.88
62152;BME280;48139;47.474;19.034;2022-12-08T16:02:33;100041.03;;;4.51;78.25
62152;BME280;48139;47.474;19.034;2022-12-08T16:05:57;100048.66;;;4.57;78.26
62152;BME280;48139;47.474;19.034;2022-12-08T16:09:32;100051.34;;;4.54;77.99
62152;BME280;48139;47.474;19.034;2022-12-08T16:12:35;100050.63;;;4.49;79.48
62152;BME280;48139;47.474;19.034;2022-12-08T16:16:18;100056.50;;;4.56;78.53
62152;BME280;48139;47.474;19.034;2022-12-08T16:19:24;100061.41;;;4.65;79.42
62152;BME280;48139;47.474;19.034;2022-12-08T16:22:28;100048.38;;;4.68;80.10
62152;BME280;48139;47.474;19.034;2022-12-08T16:25:51;100044.31;;;4.58;81.21
62152;BME280;48139;47.474;19.034;2022-12-08T16:29:19;100036.13;;;4.42;83.05
62152;BME280;48139;47.474;19.034;2022-12-08T16:32:27;100025.56;;;4.48;84.17
62152;BME280;48139;47.474;19.034;2022-12-08T16:35:29;100019.38;;;4.54;83.36
62152;BME280;48139;47.474;19.034;2022-12-08T16:38:34;100016.84;;;4.51;84.02
62152;BME280;48139;47.474;19.034;2022-12-08T16:41:40;100023.84;;;4.49;84.45
62152;BME280;48139;47.474;19.034;2022-12-08T16:48:18;100029.03;;;4.49;85.09
62152;BME280;48139;47.474;19.034;2022-12-08T16:51:21;100037.47;;;4.55;83.97
62152;BME280;48139;47.474;19.034;2022-12-08T16:54:28;100040.59;;;4.37;84.45
62152;BME280;48139;47.474;19.034;2022-12-08T16:57:31;100036.19;;;4.39;88.26
62152;BME280;48139;47.474;19.034;2022-12-08T17:00:33;100045.81;;;4.35;85.68
